sensor_id;sensor_type;location;lat;lon;timestamp;pressure;altitude;pressure_sealevel;temperature;humidity
25869;BME280;13688;53.154;18.136;2023-03-01T00:01:19;102415.67;;;-4.42;85.65
25869;BME280;13688;53.154;18.136;2023-03-01T00:06:45;102407.84;;;-4.36;86.00
25869;BME280;13688;53.154;18.136;2023-03-01T00:12:10;102406.92;;;-4.43;86.08
25869;BME280;13688;53.154;18.136;2023-03-01T00:17:34;102415.50;;;-4.56;86.10
25869;BME280;13688;53.154;18.136;2023-03-01T00:22:58;102413.86;;;-4.46;86.30
25869;BME280;13688;53.154;18.136;2023-03-01T00:28:23;102392.92;;;-4.42;86.43
25869;BME280;13688;53.154;18.136;2023-03-01T00:33:51;102382.37;;;-4.45;86.42
25869;BME280;13688;53.154;18.136;2023-03-01T00:39:20;102388.45;;;-4.50;86.35
25869;BME280;13688;53.154;18.136;2023-03-01T00:44:44;102389.31;;;-4.51;86.34
25869;BME280;13688;53.154;18.136;2023-03-01T00:50:10;102380.72;;;-4.35;86.39
25869;BME280;13688;53.154;18.136;2023-03-01T00:55:35;102378.86;;;-4.45;86.16
25869;BME280;13688;53.154;18.136;2023-03-01T01:01:00;102362.39;;;-4.32;86.08
25869;BME280;13688;53.154;18.136;2023-03-01T01:06:33;102352.22;;;-3.94;85.90
25869;BME280;13688;53.154;18.136;2023-03-01T01:11:57;102353.20;;;-3.78;84.96
25869;BME280;13688;53.154;18.136;2023-03-01T01:17:22;102343.41;;;-3.97;83.73
25869;BME280;13688;53.154;18.136;2023-03-01T01:22:47;102337.09;;;-4.24;82.93
25869;BME280;13688;53.154;18.136;2023-03-01T01:28:12;102337.70;;;-4.49;82.65
25869;BME280;13688;53.154;18.136;2023-03-01T01:33:37;102330.59;;;-4.61;82.92
25869;BME280;13688;53.154;18.136;2023-03-01T01:39:02;102329.61;;;-4.72;83.41
25869;BME280;13688;53.154;18.136;2023-03-01T01:44:28;102319.83;;;-4.84;83.97
25869;BME280;13688;53.154;18.136;2023-03-01T01:49:59;102311.07;;;-4.86;84.56
25869;BME280;13688;53.154;18.136;2023-03-01T01:55:27;102315.41;;;-4.91;85.09
25869;BME280;13688;53.154;18.136;2023-03-01T02:00:52;102301.56;;;-4.75;85.65
25869;BME280;13688;53.154;18.136;2023-03-01T02:06:21;102298.23;;;-4.60;85.95
25869;BME280;13688;53.154;18.136;2023-03-01T02:11:53;102299.04;;;-4.66;85.91
25869;BME280;13688;53.154;18.136;2023-03-01T02:17:20;102299.98;;;-4.61;85.77
25869;BME280;13688;53.154;18.136;2023-03-01T02:22:45;102293.06;;;-4.52;85.61
25869;BME280;13688;53.154;18.136;2023-03-01T02:33:43;102299.30;;;-4.38;84.88
25869;BME280;13688;53.154;18.136;2023-03-01T02:39:11;102282.48;;;-4.60;84.29
25869;BME280;13688;53.154;18.136;2023-03-01T02:44:37;102281.53;;;-4.68;84.07
25869;BME280;13688;53.154;18.136;2023-03-01T02:50:02;102270.13;;;-4.72;84.11
25869;BME280;13688;53.154;18.136;2023-03-01T02:55:34;102276.00;;;-4.94;84.16
25869;BME280;13688;53.154;18.136;2023-03-01T03:00:58;102256.55;;;-5.14;84.36
25869;BME280;13688;53.154;18.136;2023-03-01T03:06:24;102268.75;;;-5.18;84.82
25869;BME280;13688;53.154;18.136;2023-03-01T03:11:49;102265.19;;;-5.23;85.40
25869;BME280;13688;53.154;18.136;2023-03-01T03:17:23;102270.59;;;-5.11;85.77
25869;BME280;13688;53.154;18.136;2023-03-01T03:22:50;102266.13;;;-5.18;86.43
25869;BME280;13688;53.154;18.136;2023-03-01T03:28:15;102255.69;;;-5.12;86.85
25869;BME280;13688;53.154;18.136;2023-03-01T03:33:40;102244.39;;;-5.08;87.15
25869;BME280;13688;53.154;18.136;2023-03-01T03:39:05;102230.34;;;-5.13;87.27
25869;BME280;13688;53.154;18.136;2023-03-01T03:44:30;102232.95;;;-5.14;87.41
25869;BME280;13688;53.154;18.136;2023-03-01T03:49:54;102226.78;;;-5.21;87.51
25869;BME280;13688;53.154;18.136;2023-03-01T03:55:19;102219.73;;;-5.24;87.68
25869;BME280;13688;53.154;18.136;2023-03-01T04:00:45;102233.63;;;-5.31;87.84
25869;BME280;13688;53.154;18.136;2023-03-01T04:06:14;102231.82;;;-5.38;88.02
25869;BME280;13688;53.154;18.136;2023-03-01T04:11:39;102235.25;;;-5.42;88.23
25869;BME280;13688;53.154;18.136;2023-03-01T04:17:02;102242.41;;;-5.29;88.61
25869;BME280;13688;53.154;18.136;2023-03-01T04:22:27;102237.38;;;-5.10;88.96
25869;BME280;13688;53.154;18.136;2023-03-01T04:27:52;102242.77;;;-4.95;89.16
25869;BME280;13688;53.154;18.136;2023-03-01T04:33:17;102235.88;;;-4.84;89.14
25869;BME280;13688;53.154;18.136;2023-03-01T04:38:43;102222.81;;;-4.81;88.82
25869;BME280;13688;53.154;18.136;2023-03-01T04:44:09;102223.63;;;-4.86;88.37
25869;BME280;13688;53.154;18.136;2023-03-01T04:49:34;102215.65;;;-4.97;87.97
25869;BME280;13688;53.154;18.136;2023-03-01T04:54:57;102214.69;;;-5.05;87.65
25869;BME280;13688;53.154;18.136;2023-03-01T05:00:22;102197.11;;;-5.15;87.48
25869;BME280;13688;53.154;18.136;2023-03-01T05:05:47;102197.02;;;-5.23;87.48
25869;BME280;13688;53.154;18.136;2023-03-01T05:11:12;102206.60;;;-5.27;87.60
25869;BME280;13688;53.154;18.136;2023-03-01T05:16:38;102211.06;;;-5.20;87.88
25869;BME280;13688;53.154;18.136;2023-03-01T05:22:02;102212.91;;;-5.09;88.20
25869;BME280;13688;53.154;18.136;2023-03-01T05:27:27;102218.27;;;-4.97;88.42
25869;BME280;13688;53.154;18.136;2023-03-01T05:32:54;102211.27;;;-5.00;88.46
25869;BME280;13688;53.154;18.136;2023-03-01T05:38:20;102207.70;;;-5.03;88.41
25869;BME280;13688;53.154;18.136;2023-03-01T05:43:44;102202.51;;;-5.02;88.35
25869;BME280;13688;53.154;18.136;2023-03-01T05:49:09;102207.70;;;-5.03;88.34
25869;BME280;13688;53.154;18.136;2023-03-01T05:54:36;102206.03;;;-4.97;88.33
25869;BME280;13688;53.154;18.136;2023-03-01T06:00:00;102215.74;;;-4.88;88.36
25869;BME280;13688;53.154;18.136;2023-03-01T06:05:26;102202.78;;;-4.71;88.35
25869;BME280;13688;53.154;18.136;2023-03-01T06:10:49;102206.41;;;-4.54;88.25
25869;BME280;13688;53.154;18.136;2023-03-01T06:16:13;102211.77;;;-4.42;87.86
25869;BME280;13688;53.154;18.136;2023-03-01T06:21:39;102212.72;;;-4.32;87.30
25869;BME280;13688;53.154;18.136;2023-03-01T06:27:03;102222.38;;;-4.26;86.69
25869;BME280;13688;53.154;18.136;2023-03-01T06:32:28;102220.67;;;-4.21;86.01
25869;BME280;13688;53.154;18.136;2023-03-01T06:37:54;102218.11;;;-4.14;85.38
25869;BME280;13688;53.154;18.136;2023-03-01T06:43:18;102226.87;;;-4.10;84.73
25869;BME280;13688;53.154;18.136;2023-03-01T06:48:43;102236.50;;;-4.11;84.17
25869;BME280;13688;53.154;18.136;2023-03-01T06:54:07;102230.37;;;-4.10;83.81
25869;BME280;13688;53.154;18.136;2023-03-01T06:59:35;102218.16;;;-4.05;83.59
25869;BME280;13688;53.154;18.136;2023-03-01T07:04:59;102215.59;;;-3.95;83.51
25869;BME280;13688;53.154;18.136;2023-03-01T07:10:23;102215.61;;;-3.86;83.48
25869;BME280;13688;53.154;18.136;2023-03-01T07:15:48;102210.45;;;-3.76;83.44
25869;BME280;13688;53.154;18.136;2023-03-01T07:21:13;102204.36;;;-3.59;83.34
25869;BME280;13688;53.154;18.136;2023-03-01T07:26:38;102192.20;;;-3.34;83.16
25869;BME280;13688;53.154;18.136;2023-03-01T07:32:05;102194.90;;;-3.05;82.81
25869;BME280;13688;53.154;18.136;2023-03-01T07:37:29;102189.66;;;-2.84;82.22
25869;BME280;13688;53.154;18.136;2023-03-01T07:42:55;102195.80;;;-2.62;81.55
25869;BME280;13688;53.154;18.136;2023-03-01T07:48:19;102197.56;;;-2.38;80.74
25869;BME280;13688;53.154;18.136;2023-03-01T07:53:41;102191.39;;;-2.11;79.86
25869;BME280;13688;53.154;18.136;2023-03-01T07:59:05;102178.13;;;-1.82;79.01
25869;BME280;13688;53.154;18.136;2023-03-01T08:04:27;102170.09;;;-1.52;78.22
25869;BME280;13688;53.154;18.136;2023-03-01T08:09:51;102178.76;;;-1.25;77.42
25869;BME280;13688;53.154;18.136;2023-03-01T08:15:14;102170.70;;;-1.04;76.66
25869;BME280;13688;53.154;18.136;2023-03-01T08:20:36;102181.05;;;-0.78;76.12
25869;BME280;13688;53.154;18.136;2023-03-01T08:31:35;102186.88;;;-0.35;74.92
25869;BME280;13688;53.154;18.136;2023-03-01T08:36:59;102177.84;;;-0.14;74.38
25869;BME280;13688;53.154;18.136;2023-03-01T08:42:21;102185.45;;;0.17;73.93
25869;BME280;13688;53.154;18.136;2023-03-01T08:47:45;102183.41;;;0.42;73.31
25869;BME280;13688;53.154;18.136;2023-03-01T08:53:10;102178.48;;;0.80;72.94
25869;BME280;13688;53.154;18.136;2023-03-01T08:58:33;102182.42;;;1.12;72.40
25869;BME280;13688;53.154;18.136;2023-03-01T09:03:55;102170.30;;;1.51;72.09
25869;BME280;13688;53.154;18.136;2023-03-01T09:09:22;102176.91;;;1.78;71.79
25869;BME280;13688;53.154;18.136;2023-03-01T09:14:45;102173.67;;;2.09;71.42
25869;BME280;13688;53.154;18.136;2023-03-01T09:20:08;102171.38;;;2.35;71.13
25869;BME280;13688;53.154;18.136;2023-03-01T09:25:31;102164.47;;;2.68;70.71
25869;BME280;13688;53.154;18.136;2023-03-01T09:30:53;102168.25;;;2.97;70.32
25869;BME280;13688;53.154;18.136;2023-03-01T09:36:20;102172.92;;;3.24;70.75
25869;BME280;13688;53.154;18.136;2023-03-01T09:41:58;102163.90;;;3.31;70.24
25869;BME280;13688;53.154;18.136;2023-03-01T09:47:21;102164.55;;;3.41;69.88
25869;BME280;13688;53.154;18.136;2023-03-01T09:52:52;102150.31;;;3.76;69.73
25869;BME280;13688;53.154;18.136;2023-03-01T10:10:01;102148.19;;;4.21;68.60
25869;BME280;13688;53.154;18.136;2023-03-01T10:15:43;102154.56;;;4.47;68.09
25869;BME280;13688;53.154;18.136;2023-03-01T10:21:14;102110.36;;;6.01;64.49
25869;BME280;13688;53.154;18.136;2023-03-01T10:26:54;102110.36;;;6.01;64.49
25869;BME280;13688;53.154;18.136;2023-03-01T10:32:20;102106.23;;;6.16;61.72
25869;BME280;13688;53.154;18.136;2023-03-01T10:37:56;102092.80;;;6.65;60.90
25869;BME280;13688;53.154;18.136;2023-03-01T10:43:21;102095.88;;;6.77;59.90
25869;BME280;13688;53.154;18.136;2023-03-01T10:54:37;102089.69;;;6.75;59.08
25869;BME280;13688;53.154;18.136;2023-03-01T11:00:14;102075.08;;;7.48;58.94
25869;BME280;13688;53.154;18.136;2023-03-01T11:05:52;102065.86;;;7.55;57.85
25869;BME280;13688;53.154;18.136;2023-03-01T11:11:34;102073.30;;;7.06;57.04
25869;BME280;13688;53.154;18.136;2023-03-01T11:22:55;102050.91;;;7.70;55.12
25869;BME280;13688;53.154;18.136;2023-03-01T11:28:23;102061.89;;;7.84;54.05
25869;BME280;13688;53.154;18.136;2023-03-01T11:39:34;102044.63;;;8.29;51.97
25869;BME280;13688;53.154;18.136;2023-03-01T11:45:13;102046.24;;;8.71;51.86
25869;BME280;13688;53.154;18.136;2023-03-01T11:50:44;102040.02;;;8.87;50.03
25869;BME280;13688;53.154;18.136;2023-03-01T12:01:57;102034.48;;;8.17;51.28
25869;BME280;13688;53.154;18.136;2023-03-01T12:07:53;102039.60;;;7.84;53.79
25869;BME280;13688;53.154;18.136;2023-03-01T12:18:49;102048.63;;;8.20;52.94
25869;BME280;13688;53.154;18.136;2023-03-01T12:24:33;102041.27;;;8.44;53.94
25869;BME280;13688;53.154;18.136;2023-03-01T12:53:36;102030.18;;;8.52;53.17
25869;BME280;13688;53.154;18.136;2023-03-01T13:10:58;102011.04;;;9.30;51.00
25869;BME280;13688;53.154;18.136;2023-03-01T13:16:40;102007.00;;;9.56;50.42
25869;BME280;13688;53.154;18.136;2023-03-01T13:22:25;102007.02;;;9.39;49.66
25869;BME280;13688;53.154;18.136;2023-03-01T13:27:46;102002.81;;;9.16;51.91
25869;BME280;13688;53.154;18.136;2023-03-01T13:44:35;101988.85;;;10.42;49.12
25869;BME280;13688;53.154;18.136;2023-03-01T13:50:05;101993.22;;;10.44;49.51
25869;BME280;13688;53.154;18.136;2023-03-01T13:55:58;101979.65;;;10.14;48.99
25869;BME280;13688;53.154;18.136;2023-03-01T14:01:34;101975.19;;;10.92;46.42
25869;BME280;13688;53.154;18.136;2023-03-01T14:07:22;101974.66;;;11.15;46.40
25869;BME280;13688;53.154;18.136;2023-03-01T14:18:54;101968.15;;;10.44;48.05
25869;BME280;13688;53.154;18.136;2023-03-01T14:24:25;101953.55;;;10.16;48.21
25869;BME280;13688;53.154;18.136;2023-03-01T14:29:57;101952.16;;;10.56;48.20
25869;BME280;13688;53.154;18.136;2023-03-01T14:35:31;101960.72;;;10.00;48.16
25869;BME280;13688;53.154;18.136;2023-03-01T14:40:59;101958.44;;;9.43;51.14
25869;BME280;13688;53.154;18.136;2023-03-01T14:46:40;101956.13;;;9.53;50.70
25869;BME280;13688;53.154;18.136;2023-03-01T14:52:21;101948.05;;;9.37;51.53
25869;BME280;13688;53.154;18.136;2023-03-01T14:57:50;101942.61;;;9.55;51.87
25869;BME280;13688;53.154;18.136;2023-03-01T15:03:19;101936.44;;;9.37;51.03
25869;BME280;13688;53.154;18.136;2023-03-01T15:08:42;101946.66;;;9.79;50.35
25869;BME280;13688;53.154;18.136;2023-03-01T15:19:58;101931.40;;;9.13;50.46
25869;BME280;13688;53.154;18.136;2023-03-01T15:25:26;101926.81;;;9.15;51.52
25869;BME280;13688;53.154;18.136;2023-03-01T15:30:54;101921.62;;;8.78;52.59
25869;BME280;13688;53.154;18.136;2023-03-01T15:36:41;101914.98;;;8.68;53.38
25869;BME280;13688;53.154;18.136;2023-03-01T15:42:05;101922.09;;;8.86;53.20
25869;BME280;13688;53.154;18.136;2023-03-01T15:47:50;101921.38;;;8.65;53.50
25869;BME280;13688;53.154;18.136;2023-03-01T15:53:15;101914.94;;;8.69;53.18
25869;BME280;13688;53.154;18.136;2023-03-01T15:58:39;101921.26;;;8.13;54.14
25869;BME280;13688;53.154;18.136;2023-03-01T16:04:01;101914.45;;;7.68;55.29
25869;BME280;13688;53.154;18.136;2023-03-01T16:09:33;101915.75;;;7.21;56.27
25869;BME280;13688;53.154;18.136;2023-03-01T16:14:56;101916.68;;;6.37;58.25
25869;BME280;13688;53.154;18.136;2023-03-01T16:20:18;101908.10;;;5.61;60.71
25869;BME280;13688;53.154;18.136;2023-03-01T16:25:42;101911.33;;;5.23;62.92
25869;BME280;13688;53.154;18.136;2023-03-01T16:31:04;101912.52;;;4.64;64.29
25869;BME280;13688;53.154;18.136;2023-03-01T16:36:28;101917.22;;;4.01;66.24
25869;BME280;13688;53.154;18.136;2023-03-01T16:41:50;101918.76;;;3.51;68.11
25869;BME280;13688;53.154;18.136;2023-03-01T16:47:13;101919.84;;;3.13;69.88
25869;BME280;13688;53.154;18.136;2023-03-01T16:52:35;101919.28;;;2.68;71.32
25869;BME280;13688;53.154;18.136;2023-03-01T16:57:59;101929.02;;;2.33;72.94
25869;BME280;13688;53.154;18.136;2023-03-01T17:03:23;101926.18;;;1.63;74.32
25869;BME280;13688;53.154;18.136;2023-03-01T17:08:48;101931.75;;;1.51;76.32
25869;BME280;13688;53.154;18.136;2023-03-01T17:14:10;101930.99;;;1.44;77.80
25869;BME280;13688;53.154;18.136;2023-03-01T17:19:36;101943.78;;;1.67;79.11
25869;BME280;13688;53.154;18.136;2023-03-01T17:24:59;101937.05;;;1.91;79.76
25869;BME280;13688;53.154;18.136;2023-03-01T17:30:24;101936.72;;;2.07;79.84
25869;BME280;13688;53.154;18.136;2023-03-01T17:35:47;101944.64;;;2.08;79.46
25869;BME280;13688;53.154;18.136;2023-03-01T17:41:10;101954.46;;;2.05;79.25
25869;BME280;13688;53.154;18.136;2023-03-01T17:46:35;101944.64;;;1.26;78.31
25869;BME280;13688;53.154;18.136;2023-03-01T17:51:58;101944.69;;;0.75;78.56
25869;BME280;13688;53.154;18.136;2023-03-01T17:57:22;101946.17;;;0.41;79.68
25869;BME280;13688;53.154;18.136;2023-03-01T18:02:47;101949.72;;;0.40;81.31
25869;BME280;13688;53.154;18.136;2023-03-01T18:08:10;101961.03;;;-0.09;82.07
25869;BME280;13688;53.154;18.136;2023-03-01T18:13:33;101955.80;;;-0.14;83.12
25869;BME280;13688;53.154;18.136;2023-03-01T18:19:00;101955.08;;;-0.25;84.43
25869;BME280;13688;53.154;18.136;2023-03-01T18:24:23;101960.68;;;-0.51;85.18
25869;BME280;13688;53.154;18.136;2023-03-01T18:29:45;101964.22;;;-0.52;86.26
25869;BME280;13688;53.154;18.136;2023-03-01T18:35:08;101961.86;;;-0.06;88.03
25869;BME280;13688;53.154;18.136;2023-03-01T18:40:33;101966.15;;;1.09;90.40
25869;BME280;13688;53.154;18.136;2023-03-01T18:46:04;101971.48;;;1.94;90.65
25869;BME280;13688;53.154;18.136;2023-03-01T18:51:33;101953.91;;;2.27;87.45
25869;BME280;13688;53.154;18.136;2023-03-01T18:56:59;101955.95;;;2.16;83.55
25869;BME280;13688;53.154;18.136;2023-03-01T19:02:21;101956.33;;;1.99;81.49
25869;BME280;13688;53.154;18.136;2023-03-01T19:07:44;101958.82;;;1.67;81.01
25869;BME280;13688;53.154;18.136;2023-03-01T19:13:07;101958.51;;;1.39;81.57
25869;BME280;13688;53.154;18.136;2023-03-01T19:18:29;101971.34;;;1.14;82.51
25869;BME280;13688;53.154;18.136;2023-03-01T19:23:53;101977.08;;;0.91;83.50
25869;BME280;13688;53.154;18.136;2023-03-01T19:29:17;101982.84;;;0.64;84.40
25869;BME280;13688;53.154;18.136;2023-03-01T19:34:40;101985.80;;;0.44;85.40
25869;BME280;13688;53.154;18.136;2023-03-01T19:40:02;101978.83;;;0.40;86.61
25869;BME280;13688;53.154;18.136;2023-03-01T19:45:26;101982.45;;;0.33;87.84
25869;BME280;13688;53.154;18.136;2023-03-01T19:50:50;101988.22;;;-0.01;88.45
25869;BME280;13688;53.154;18.136;2023-03-01T19:56:15;101998.17;;;-0.18;89.18
25869;BME280;13688;53.154;18.136;2023-03-01T20:01:40;101995.68;;;-0.32;90.04
25869;BME280;13688;53.154;18.136;2023-03-01T20:07:03;101997.52;;;-0.39;90.97
25869;BME280;13688;53.154;18.136;2023-03-01T20:12:28;101996.48;;;-0.25;92.28
25869;BME280;13688;53.154;18.136;2023-03-01T20:17:53;101991.78;;;-0.04;93.77
25869;BME280;13688;53.154;18.136;2023-03-01T20:23:19;101992.59;;;0.03;94.87
25869;BME280;13688;53.154;18.136;2023-03-01T20:28:45;101990.97;;;-0.07;95.57
25869;BME280;13688;53.154;18.136;2023-03-01T20:34:10;101990.34;;;-0.29;95.92
25869;BME280;13688;53.154;18.136;2023-03-01T20:39:35;101983.42;;;-0.39;96.37
25869;BME280;13688;53.154;18.136;2023-03-01T20:44:58;101993.25;;;-0.50;96.84
25869;BME280;13688;53.154;18.136;2023-03-01T20:50:22;101980.91;;;-0.47;97.58
25869;BME280;13688;53.154;18.136;2023-03-01T20:55:46;101994.33;;;-0.65;98.14
25869;BME280;13688;53.154;18.136;2023-03-01T21:01:15;101996.05;;;-0.63;98.89
25869;BME280;13688;53.154;18.136;2023-03-01T21:06:38;102002.66;;;-1.05;99.27
25869;BME280;13688;53.154;18.136;2023-03-01T21:12:03;102007.38;;;-1.43;99.43
25869;BME280;13688;53.154;18.136;2023-03-01T21:17:28;102002.23;;;-1.62;99.67
25869;BME280;13688;53.154;18.136;2023-03-01T21:22:53;101999.70;;;-1.79;100.00
25869;BME280;13688;53.154;18.136;2023-03-01T21:28:18;102002.48;;;-2.05;100.00
25869;BME280;13688;53.154;18.136;2023-03-01T21:33:46;102007.72;;;-1.97;100.00
25869;BME280;13688;53.154;18.136;2023-03-01T21:39:13;102002.47;;;-2.03;100.00
25869;BME280;13688;53.154;18.136;2023-03-01T21:44:38;101999.13;;;-2.36;100.00
25869;BME280;13688;53.154;18.136;2023-03-01T21:50:02;101995.69;;;-2.50;100.00
25869;BME280;13688;53.154;18.136;2023-03-01T21:55:27;101993.05;;;-2.54;100.00
25869;BME280;13688;53.154;18.136;2023-03-01T22:00:53;102005.39;;;-2.67;100.00
25869;BME280;13688;53.154;18.136;2023-03-01T22:06:30;102005.41;;;-2.81;100.00
25869;BME280;13688;53.154;18.136;2023-03-01T22:11:55;101995.81;;;-2.97;100.00
25869;BME280;13688;53.154;18.136;2023-03-01T22:17:17;102002.80;;;-2.93;100.00
25869;BME280;13688;53.154;18.136;2023-03-01T22:22:40;102016.84;;;-2.93;100.00
25869;BME280;13688;53.154;18.136;2023-03-01T22:28:02;102015.12;;;-3.07;100.00
25869;BME280;13688;53.154;18.136;2023-03-01T22:33:25;102011.59;;;-2.96;100.00
25869;BME280;13688;53.154;18.136;2023-03-01T22:38:47;102004.52;;;-2.80;100.00
25869;BME280;13688;53.154;18.136;2023-03-01T22:44:12;102000.06;;;-2.53;100.00
25869;BME280;13688;53.154;18.136;2023-03-01T22:49:37;101996.45;;;-2.22;100.00
25869;BME280;13688;53.154;18.136;2023-03-01T22:55:01;102001.52;;;-1.87;100.00
25869;BME280;13688;53.154;18.136;2023-03-01T23:00:26;102000.34;;;-1.43;100.00
25869;BME280;13688;53.154;18.136;2023-03-01T23:05:50;101994.84;;;-1.19;100.00
25869;BME280;13688;53.154;18.136;2023-03-01T23:11:16;102000.87;;;-1.03;100.00
25869;BME280;13688;53.154;18.136;2023-03-01T23:16:41;102009.62;;;-0.96;100.00
25869;BME280;13688;53.154;18.136;2023-03-01T23:22:06;102004.22;;;-0.87;100.00
25869;BME280;13688;53.154;18.136;2023-03-01T23:27:30;102006.84;;;-0.84;100.00
25869;BME280;13688;53.154;18.136;2023-03-01T23:32:54;102008.59;;;-0.83;100.00
25869;BME280;13688;53.154;18.136;2023-03-01T23:38:19;102009.42;;;-0.79;100.00
25869;BME280;13688;53.154;18.136;2023-03-01T23:43:43;102004.98;;;-0.74;100.00
25869;BME280;13688;53.154;18.136;2023-03-01T23:49:12;102011.97;;;-0.70;100.00
25869;BME280;13688;53.154;18.136;2023-03-01T23:54:38;102011.94;;;-0.66;100.00
